sensor_id;sensor_type;location;lat;lon;timestamp;pressure;altitude;pressure_sealevel;temperature;humidity
61337;BME280;47212;41.326;2.104;2023-10-13T00:00:19;101881.72;;;21.49;80.05
61337;BME280;47212;41.326;2.104;2023-10-13T00:05:35;101882.31;;;21.46;80.31
61337;BME280;47212;41.326;2.104;2023-10-13T00:10:43;101882.31;;;21.46;80.23
61337;BME280;47212;41.326;2.104;2023-10-13T00:15:58;101890.22;;;21.39;80.35
61337;BME280;47212;41.326;2.104;2023-10-13T00:21:17;101892.78;;;21.36;80.62
61337;BME280;47212;41.326;2.104;2023-10-13T00:26:38;101884.28;;;21.32;80.35
61337;BME280;47212;41.326;2.104;2023-10-13T00:31:49;101901.50;;;21.29;80.78
61337;BME280;47212;41.326;2.104;2023-10-13T00:37:01;101886.13;;;21.23;80.82
61337;BME280;47212;41.326;2.104;2023-10-13T00:42:37;101885.38;;;21.17;81.07
61337;BME280;47212;41.326;2.104;2023-10-13T00:47:58;101887.94;;;21.14;81.04
61337;BME280;47212;41.326;2.104;2023-10-13T00:53:04;101883.00;;;21.11;81.28
61337;BME280;47212;41.326;2.104;2023-10-13T00:58:12;101873.66;;;21.07;81.39
61337;BME280;47212;41.326;2.104;2023-10-13T01:03:28;101876.22;;;21.03;81.75
61337;BME280;47212;41.326;2.104;2023-10-13T01:08:34;101867.41;;;21.01;81.93
61337;BME280;47212;41.326;2.104;2023-10-13T01:13:48;101872.13;;;21.01;82.13
61337;BME280;47212;41.326;2.104;2023-10-13T01:21:31;101852.22;;;20.98;81.88
61337;BME280;47212;41.326;2.104;2023-10-13T01:26:37;101858.97;;;20.92;82.01
61337;BME280;47212;41.326;2.104;2023-10-13T01:31:46;101853.34;;;20.84;82.09
61337;BME280;47212;41.326;2.104;2023-10-13T01:36:54;101842.94;;;20.76;83.01
61337;BME280;47212;41.326;2.104;2023-10-13T01:42:01;101852.66;;;20.73;82.95
61337;BME280;47212;41.326;2.104;2023-10-13T01:47:21;101835.84;;;20.70;83.11
61337;BME280;47212;41.326;2.104;2023-10-13T01:52:28;101837.78;;;20.69;83.25
61337;BME280;47212;41.326;2.104;2023-10-13T01:57:37;101823.97;;;20.69;83.45
61337;BME280;47212;41.326;2.104;2023-10-13T02:02:44;101825.09;;;20.68;83.19
61337;BME280;47212;41.326;2.104;2023-10-13T02:07:53;101823.44;;;20.67;83.33
61337;BME280;47212;41.326;2.104;2023-10-13T02:13:01;101821.50;;;20.67;83.72
61337;BME280;47212;41.326;2.104;2023-10-13T02:18:06;101817.91;;;20.67;83.49
61337;BME280;47212;41.326;2.104;2023-10-13T02:23:26;101813.00;;;20.64;83.32
61337;BME280;47212;41.326;2.104;2023-10-13T02:28:37;101803.66;;;20.60;83.58
61337;BME280;47212;41.326;2.104;2023-10-13T02:33:44;101807.53;;;20.59;83.41
61337;BME280;47212;41.326;2.104;2023-10-13T02:38:49;101803.44;;;20.56;83.75
61337;BME280;47212;41.326;2.104;2023-10-13T02:43:56;101798.00;;;20.51;83.50
61337;BME280;47212;41.326;2.104;2023-10-13T02:48:58;101804.97;;;20.49;83.55
61337;BME280;47212;41.326;2.104;2023-10-13T02:54:05;101793.69;;;20.45;83.43
61337;BME280;47212;41.326;2.104;2023-10-13T02:59:38;101803.41;;;20.43;83.53
61337;BME280;47212;41.326;2.104;2023-10-13T03:05:10;101796.81;;;20.39;83.67
61337;BME280;47212;41.326;2.104;2023-10-13T03:10:24;101798.03;;;20.32;83.51
61337;BME280;47212;41.326;2.104;2023-10-13T03:15:33;101798.63;;;20.29;83.46
61337;BME280;47212;41.326;2.104;2023-10-13T03:20:40;101797.28;;;20.27;83.63
61337;BME280;47212;41.326;2.104;2023-10-13T03:26:11;101797.66;;;20.20;83.53
61337;BME280;47212;41.326;2.104;2023-10-13T03:31:18;101796.63;;;20.16;83.42
61337;BME280;47212;41.326;2.104;2023-10-13T03:36:28;101790.66;;;20.09;83.59
61337;BME280;47212;41.326;2.104;2023-10-13T03:41:52;101795.97;;;20.06;83.67
61337;BME280;47212;41.326;2.104;2023-10-13T03:47:00;101793.00;;;20.02;83.68
61337;BME280;47212;41.326;2.104;2023-10-13T03:52:25;101770.97;;;19.97;83.79
61337;BME280;47212;41.326;2.104;2023-10-13T03:57:32;101771.78;;;19.97;83.99
61337;BME280;47212;41.326;2.104;2023-10-13T04:02:47;101768.50;;;19.95;83.77
61337;BME280;47212;41.326;2.104;2023-10-13T04:08:04;101775.97;;;19.95;84.24
61337;BME280;47212;41.326;2.104;2023-10-13T04:13:27;101768.25;;;19.92;84.09
61337;BME280;47212;41.326;2.104;2023-10-13T04:18:49;101772.13;;;19.91;83.92
61337;BME280;47212;41.326;2.104;2023-10-13T04:23:57;101771.63;;;19.89;83.63
61337;BME280;47212;41.326;2.104;2023-10-13T04:29:22;101765.56;;;19.87;83.80
61337;BME280;47212;41.326;2.104;2023-10-13T04:34:49;101763.41;;;19.84;83.99
61337;BME280;47212;41.326;2.104;2023-10-13T04:39:56;101771.91;;;19.87;83.90
61337;BME280;47212;41.326;2.104;2023-10-13T04:45:13;101763.41;;;19.84;83.84
61337;BME280;47212;41.326;2.104;2023-10-13T04:50:49;101764.31;;;19.79;84.47
61337;BME280;47212;41.326;2.104;2023-10-13T04:56:04;101760.81;;;19.73;84.26
61337;BME280;47212;41.326;2.104;2023-10-13T05:01:06;101756.41;;;19.72;84.46
61337;BME280;47212;41.326;2.104;2023-10-13T05:06:29;101755.56;;;19.72;84.51
61337;BME280;47212;41.326;2.104;2023-10-13T05:11:48;101753.63;;;19.72;84.49
61337;BME280;47212;41.326;2.104;2023-10-13T05:17:10;101755.28;;;19.73;84.47
61337;BME280;47212;41.326;2.104;2023-10-13T05:22:32;101752.81;;;19.72;84.67
61337;BME280;47212;41.326;2.104;2023-10-13T05:28:00;101763.03;;;19.71;84.54
61337;BME280;47212;41.326;2.104;2023-10-13T05:33:37;101752.00;;;19.71;84.59
61337;BME280;47212;41.326;2.104;2023-10-13T05:38:58;101745.34;;;19.72;84.48
61337;BME280;47212;41.326;2.104;2023-10-13T05:44:19;101753.63;;;19.72;84.14
61337;BME280;47212;41.326;2.104;2023-10-13T05:49:40;101751.47;;;19.69;84.41
61337;BME280;47212;41.326;2.104;2023-10-13T05:54:52;101758.09;;;19.68;84.37
61337;BME280;47212;41.326;2.104;2023-10-13T06:00:15;101752.06;;;19.66;84.17
61337;BME280;47212;41.326;2.104;2023-10-13T06:05:37;101754.81;;;19.66;84.50
61337;BME280;47212;41.326;2.104;2023-10-13T06:11:02;101762.59;;;19.64;84.23
61337;BME280;47212;41.326;2.104;2023-10-13T06:16:24;101767.81;;;19.66;84.21
61337;BME280;47212;41.326;2.104;2023-10-13T06:21:45;101764.75;;;19.67;84.05
61337;BME280;47212;41.326;2.104;2023-10-13T06:27:09;101770.28;;;19.67;83.87
61337;BME280;47212;41.326;2.104;2023-10-13T06:32:30;101768.34;;;19.68;83.73
61337;BME280;47212;41.326;2.104;2023-10-13T06:37:33;101777.44;;;19.68;83.66
61337;BME280;47212;41.326;2.104;2023-10-13T06:42:37;101783.50;;;19.70;83.83
61337;BME280;47212;41.326;2.104;2023-10-13T06:47:44;101781.84;;;19.69;83.64
61337;BME280;47212;41.326;2.104;2023-10-13T06:52:48;101777.38;;;19.73;83.67
61337;BME280;47212;41.326;2.104;2023-10-13T06:57:51;101787.31;;;19.75;83.69
61337;BME280;47212;41.326;2.104;2023-10-13T07:02:54;101786.41;;;19.79;83.46
61337;BME280;47212;41.326;2.104;2023-10-13T07:08:08;101789.09;;;19.84;83.53
61337;BME280;47212;41.326;2.104;2023-10-13T07:13:13;101792.56;;;19.95;83.20
61337;BME280;47212;41.326;2.104;2023-10-13T07:18:16;101784.97;;;20.19;82.80
61337;BME280;47212;41.326;2.104;2023-10-13T07:23:24;101790.63;;;20.47;82.10
61337;BME280;47212;41.326;2.104;2023-10-13T07:28:27;101794.97;;;20.80;80.86
61337;BME280;47212;41.326;2.104;2023-10-13T07:33:29;101800.16;;;21.14;79.89
61337;BME280;47212;41.326;2.104;2023-10-13T07:38:33;101816.97;;;21.45;78.83
61337;BME280;47212;41.326;2.104;2023-10-13T07:43:42;101807.50;;;21.74;77.83
61337;BME280;47212;41.326;2.104;2023-10-13T07:48:45;101816.28;;;22.03;77.41
61337;BME280;47212;41.326;2.104;2023-10-13T07:53:48;101817.47;;;22.33;76.27
61337;BME280;47212;41.326;2.104;2023-10-13T07:58:56;101826.69;;;22.65;75.39
61337;BME280;47212;41.326;2.104;2023-10-13T08:04:07;101821.63;;;22.89;74.40
61337;BME280;47212;41.326;2.104;2023-10-13T08:09:20;101822.69;;;23.10;73.61
61337;BME280;47212;41.326;2.104;2023-10-13T08:14:42;101832.72;;;23.29;72.96
61337;BME280;47212;41.326;2.104;2023-10-13T08:19:46;101828.56;;;23.48;72.30
61337;BME280;47212;41.326;2.104;2023-10-13T08:24:49;101824.53;;;23.72;71.99
61337;BME280;47212;41.326;2.104;2023-10-13T08:29:52;101829.97;;;23.94;71.12
61337;BME280;47212;41.326;2.104;2023-10-13T08:35:00;101837.16;;;24.12;69.28
61337;BME280;47212;41.326;2.104;2023-10-13T08:40:06;101827.06;;;24.34;69.62
61337;BME280;47212;41.326;2.104;2023-10-13T08:45:28;101827.34;;;24.58;68.91
61337;BME280;47212;41.326;2.104;2023-10-13T08:50:31;101836.63;;;24.80;68.53
61337;BME280;47212;41.326;2.104;2023-10-13T08:55:50;101829.69;;;25.03;67.96
61337;BME280;47212;41.326;2.104;2023-10-13T09:01:08;101821.56;;;25.27;67.22
61337;BME280;47212;41.326;2.104;2023-10-13T09:06:36;101822.75;;;25.47;66.55
61337;BME280;47212;41.326;2.104;2023-10-13T09:11:38;101816.75;;;25.66;66.30
61337;BME280;47212;41.326;2.104;2023-10-13T09:17:05;101824.78;;;25.88;65.10
61337;BME280;47212;41.326;2.104;2023-10-13T09:22:30;101821.56;;;26.07;65.85
61337;BME280;47212;41.326;2.104;2023-10-13T09:27:38;101825.69;;;26.22;65.65
61337;BME280;47212;41.326;2.104;2023-10-13T09:32:41;101821.00;;;26.34;65.42
61337;BME280;47212;41.326;2.104;2023-10-13T09:37:50;101821.63;;;26.52;65.60
61337;BME280;47212;41.326;2.104;2023-10-13T09:42:53;101821.09;;;26.71;65.51
61337;BME280;47212;41.326;2.104;2023-10-13T09:48:02;101814.03;;;26.86;64.93
61337;BME280;47212;41.326;2.104;2023-10-13T09:53:12;101825.06;;;27.03;64.56
61337;BME280;47212;41.326;2.104;2023-10-13T09:58:17;101809.44;;;27.14;63.83
61337;BME280;47212;41.326;2.104;2023-10-13T10:03:21;101808.88;;;27.09;64.01
61337;BME280;47212;41.326;2.104;2023-10-13T10:08:42;101815.81;;;26.90;64.90
61337;BME280;47212;41.326;2.104;2023-10-13T10:19:06;101821.16;;;26.50;65.50
61337;BME280;47212;41.326;2.104;2023-10-13T10:24:21;101816.66;;;26.58;64.92
61337;BME280;47212;41.326;2.104;2023-10-13T10:29:32;101807.69;;;26.52;66.36
61337;BME280;47212;41.326;2.104;2023-10-13T10:34:34;101808.63;;;26.56;67.07
61337;BME280;47212;41.326;2.104;2023-10-13T10:39:37;101804.19;;;26.55;67.25
61337;BME280;47212;41.326;2.104;2023-10-13T10:44:51;101803.00;;;26.44;68.39
61337;BME280;47212;41.326;2.104;2023-10-13T10:49:58;101797.91;;;26.58;65.60
61337;BME280;47212;41.326;2.104;2023-10-13T10:55:02;101801.91;;;26.70;65.32
61337;BME280;47212;41.326;2.104;2023-10-13T11:00:21;101787.69;;;26.62;64.86
61337;BME280;47212;41.326;2.104;2023-10-13T11:05:27;101786.31;;;26.69;65.54
61337;BME280;47212;41.326;2.104;2023-10-13T11:10:34;101780.25;;;26.79;65.83
61337;BME280;47212;41.326;2.104;2023-10-13T11:15:44;101784.66;;;26.67;65.68
61337;BME280;47212;41.326;2.104;2023-10-13T11:20:47;101772.09;;;26.74;65.30
61337;BME280;47212;41.326;2.104;2023-10-13T11:25:59;101767.91;;;26.67;65.76
61337;BME280;47212;41.326;2.104;2023-10-13T11:31:02;101765.38;;;26.75;66.25
61337;BME280;47212;41.326;2.104;2023-10-13T11:36:22;101762.31;;;26.67;66.22
61337;BME280;47212;41.326;2.104;2023-10-13T11:41:28;101772.47;;;26.72;65.90
61337;BME280;47212;41.326;2.104;2023-10-13T11:46:39;101755.84;;;26.88;66.24
61337;BME280;47212;41.326;2.104;2023-10-13T11:51:50;101754.47;;;26.94;65.83
61337;BME280;47212;41.326;2.104;2023-10-13T11:56:53;101747.34;;;26.96;65.89
61337;BME280;47212;41.326;2.104;2023-10-13T12:02:00;101734.19;;;26.85;65.89
61337;BME280;47212;41.326;2.104;2023-10-13T12:07:21;101733.38;;;26.84;66.06
61337;BME280;47212;41.326;2.104;2023-10-13T12:12:42;101719.69;;;27.04;66.01
61337;BME280;47212;41.326;2.104;2023-10-13T12:17:46;101721.41;;;27.08;65.39
61337;BME280;47212;41.326;2.104;2023-10-13T12:22:49;101703.25;;;27.14;65.52
61337;BME280;47212;41.326;2.104;2023-10-13T12:27:57;101698.03;;;27.01;65.73
61337;BME280;47212;41.326;2.104;2023-10-13T12:33:00;101695.22;;;27.01;65.75
61337;BME280;47212;41.326;2.104;2023-10-13T12:38:08;101687.84;;;26.84;65.96
61337;BME280;47212;41.326;2.104;2023-10-13T12:43:30;101683.53;;;26.86;66.20
61337;BME280;47212;41.326;2.104;2023-10-13T12:48:52;101668.56;;;26.91;66.02
61337;BME280;47212;41.326;2.104;2023-10-13T12:53:58;101666.59;;;27.04;66.05
61337;BME280;47212;41.326;2.104;2023-10-13T12:59:38;101657.34;;;27.15;65.20
61337;BME280;47212;41.326;2.104;2023-10-13T13:04:43;101654.13;;;27.01;64.86
61337;BME280;47212;41.326;2.104;2023-10-13T13:09:52;101645.84;;;26.80;66.06
61337;BME280;47212;41.326;2.104;2023-10-13T13:14:57;101651.53;;;26.84;65.91
61337;BME280;47212;41.326;2.104;2023-10-13T13:20:02;101637.34;;;26.89;65.88
61337;BME280;47212;41.326;2.104;2023-10-13T13:25:13;101638.97;;;26.78;65.41
61337;BME280;47212;41.326;2.104;2023-10-13T13:30:19;101628.28;;;26.67;64.75
61337;BME280;47212;41.326;2.104;2023-10-13T13:35:23;101630.97;;;26.52;65.04
61337;BME280;47212;41.326;2.104;2023-10-13T13:40:30;101603.72;;;26.61;64.64
61337;BME280;47212;41.326;2.104;2023-10-13T13:45:37;101601.28;;;26.47;63.57
61337;BME280;47212;41.326;2.104;2023-10-13T13:50:43;101612.22;;;26.40;63.43
61337;BME280;47212;41.326;2.104;2023-10-13T13:55:46;101613.97;;;26.32;64.60
61337;BME280;47212;41.326;2.104;2023-10-13T14:01:02;101611.84;;;26.17;64.80
61337;BME280;47212;41.326;2.104;2023-10-13T14:06:28;101604.03;;;26.11;65.43
61337;BME280;47212;41.326;2.104;2023-10-13T14:11:31;101603.53;;;25.96;65.47
61337;BME280;47212;41.326;2.104;2023-10-13T14:16:38;101602.03;;;25.99;65.40
61337;BME280;47212;41.326;2.104;2023-10-13T14:21:40;101600.16;;;25.91;65.59
61337;BME280;47212;41.326;2.104;2023-10-13T14:26:44;101601.19;;;25.86;67.14
61337;BME280;47212;41.326;2.104;2023-10-13T14:31:46;101587.59;;;25.97;66.32
61337;BME280;47212;41.326;2.104;2023-10-13T14:36:51;101592.63;;;26.03;67.05
61337;BME280;47212;41.326;2.104;2023-10-13T14:41:53;101576.56;;;26.00;66.56
61337;BME280;47212;41.326;2.104;2023-10-13T14:46:55;101581.44;;;25.91;66.96
61337;BME280;47212;41.326;2.104;2023-10-13T14:51:57;101566.31;;;25.80;66.39
61337;BME280;47212;41.326;2.104;2023-10-13T14:57:02;101577.56;;;25.71;66.42
61337;BME280;47212;41.326;2.104;2023-10-13T15:02:04;101554.25;;;25.55;67.98
61337;BME280;47212;41.326;2.104;2023-10-13T15:07:07;101550.78;;;25.58;68.55
61337;BME280;47212;41.326;2.104;2023-10-13T15:12:10;101555.75;;;25.53;69.06
61337;BME280;47212;41.326;2.104;2023-10-13T15:17:14;101556.19;;;25.43;69.43
61337;BME280;47212;41.326;2.104;2023-10-13T15:22:18;101553.22;;;25.27;70.41
61337;BME280;47212;41.326;2.104;2023-10-13T15:27:27;101537.75;;;25.17;71.20
61337;BME280;47212;41.326;2.104;2023-10-13T15:32:30;101542.69;;;25.12;71.78
61337;BME280;47212;41.326;2.104;2023-10-13T15:37:49;101535.97;;;25.13;72.42
61337;BME280;47212;41.326;2.104;2023-10-13T15:42:51;101537.13;;;25.12;73.65
61337;BME280;47212;41.326;2.104;2023-10-13T15:47:56;101541.81;;;24.99;74.08
61337;BME280;47212;41.326;2.104;2023-10-13T15:53:01;101527.47;;;24.88;74.44
61337;BME280;47212;41.326;2.104;2023-10-13T15:58:04;101526.16;;;24.86;74.57
61337;BME280;47212;41.326;2.104;2023-10-13T16:03:09;101513.59;;;24.80;74.91
61337;BME280;47212;41.326;2.104;2023-10-13T16:08:15;101520.34;;;24.78;76.26
61337;BME280;47212;41.326;2.104;2023-10-13T16:13:17;101516.13;;;24.72;75.68
61337;BME280;47212;41.326;2.104;2023-10-13T16:18:21;101521.56;;;24.69;76.20
61337;BME280;47212;41.326;2.104;2023-10-13T16:23:24;101518.16;;;24.63;76.69
61337;BME280;47212;41.326;2.104;2023-10-13T16:28:27;101524.13;;;24.53;77.32
61337;BME280;47212;41.326;2.104;2023-10-13T16:33:29;101527.78;;;24.45;77.85
61337;BME280;47212;41.326;2.104;2023-10-13T16:38:35;101529.81;;;24.36;78.27
61337;BME280;47212;41.326;2.104;2023-10-13T16:43:39;101523.44;;;24.27;78.82
61337;BME280;47212;41.326;2.104;2023-10-13T16:48:42;101519.66;;;24.23;79.03
61337;BME280;47212;41.326;2.104;2023-10-13T16:53:45;101518.03;;;24.22;79.49
61337;BME280;47212;41.326;2.104;2023-10-13T16:58:53;101507.78;;;24.13;79.31
61337;BME280;47212;41.326;2.104;2023-10-13T17:03:56;101504.22;;;24.04;79.75
61337;BME280;47212;41.326;2.104;2023-10-13T17:08:58;101518.84;;;23.93;80.14
61337;BME280;47212;41.326;2.104;2023-10-13T17:14:00;101519.84;;;23.88;80.00
61337;BME280;47212;41.326;2.104;2023-10-13T17:19:07;101515.63;;;23.82;80.14
61337;BME280;47212;41.326;2.104;2023-10-13T17:24:09;101527.41;;;23.79;80.91
61337;BME280;47212;41.326;2.104;2023-10-13T17:29:13;101532.16;;;23.78;80.66
61337;BME280;47212;41.326;2.104;2023-10-13T17:34:15;101537.56;;;23.75;80.91
61337;BME280;47212;41.326;2.104;2023-10-13T17:39:19;101545.91;;;23.75;80.89
61337;BME280;47212;41.326;2.104;2023-10-13T17:44:21;101554.25;;;23.75;81.12
61337;BME280;47212;41.326;2.104;2023-10-13T17:49:26;101555.56;;;23.69;82.00
61337;BME280;47212;41.326;2.104;2023-10-13T17:54:28;101560.63;;;23.67;81.92
61337;BME280;47212;41.326;2.104;2023-10-13T17:59:33;101562.44;;;23.63;82.00
61337;BME280;47212;41.326;2.104;2023-10-13T18:04:38;101560.31;;;23.60;82.28
61337;BME280;47212;41.326;2.104;2023-10-13T18:09:43;101569.81;;;23.59;82.62
61337;BME280;47212;41.326;2.104;2023-10-13T18:14:46;101567.69;;;23.56;82.64
61337;BME280;47212;41.326;2.104;2023-10-13T18:19:48;101555.75;;;23.55;82.89
61337;BME280;47212;41.326;2.104;2023-10-13T18:24:50;101569.97;;;23.54;82.98
61337;BME280;47212;41.326;2.104;2023-10-13T18:29:53;101564.09;;;23.55;nan
61337;BME280;47212;41.326;2.104;2023-10-13T18:34:56;101570.16;;;23.57;82.83
61337;BME280;47212;41.326;2.104;2023-10-13T18:39:58;101568.50;;;23.56;82.83
61337;BME280;47212;41.326;2.104;2023-10-13T18:45:00;101564.91;;;23.56;82.98
61337;BME280;47212;41.326;2.104;2023-10-13T18:50:03;101562.13;;;23.56;83.24
61337;BME280;47212;41.326;2.104;2023-10-13T18:55:07;101563.28;;;23.55;83.29
61337;BME280;47212;41.326;2.104;2023-10-13T19:00:10;101575.34;;;23.50;83.38
61337;BME280;47212;41.326;2.104;2023-10-13T19:05:16;101573.72;;;23.49;83.49
61337;BME280;47212;41.326;2.104;2023-10-13T19:10:19;101582.38;;;23.47;83.72
61337;BME280;47212;41.326;2.104;2023-10-13T19:15:22;101575.84;;;23.43;83.78
61337;BME280;47212;41.326;2.104;2023-10-13T19:20:27;101585.97;;;23.39;84.14
61337;BME280;47212;41.326;2.104;2023-10-13T19:25:35;101581.06;;;23.36;84.77
61337;BME280;47212;41.326;2.104;2023-10-13T19:30:40;101582.22;;;23.35;84.99
61337;BME280;47212;41.326;2.104;2023-10-13T19:35:45;101596.09;;;23.35;84.49
61337;BME280;47212;41.326;2.104;2023-10-13T19:40:47;101598.38;;;23.33;84.88
61337;BME280;47212;41.326;2.104;2023-10-13T19:45:49;101611.63;;;23.36;85.34
61337;BME280;47212;41.326;2.104;2023-10-13T19:50:51;101601.00;;;23.38;84.81
61337;BME280;47212;41.326;2.104;2023-10-13T19:55:56;101601.00;;;23.38;84.96
61337;BME280;47212;41.326;2.104;2023-10-13T20:01:06;101605.75;;;23.38;85.41
61337;BME280;47212;41.326;2.104;2023-10-13T20:06:09;101610.47;;;23.37;84.86
61337;BME280;47212;41.326;2.104;2023-10-13T20:11:11;101608.19;;;23.39;84.79
61337;BME280;47212;41.326;2.104;2023-10-13T20:16:19;101605.94;;;23.41;84.85
61337;BME280;47212;41.326;2.104;2023-10-13T20:21:22;101616.72;;;23.43;84.27
61337;BME280;47212;41.326;2.104;2023-10-13T20:26:28;101617.88;;;23.42;84.72
61337;BME280;47212;41.326;2.104;2023-10-13T20:31:32;101613.75;;;23.39;84.47
61337;BME280;47212;41.326;2.104;2023-10-13T20:36:39;101614.06;;;23.38;84.57
61337;BME280;47212;41.326;2.104;2023-10-13T20:42:01;101604.44;;;23.35;84.16
61337;BME280;47212;41.326;2.104;2023-10-13T20:47:06;101610.66;;;23.32;84.12
61337;BME280;47212;41.326;2.104;2023-10-13T20:52:08;101608.34;;;23.34;83.89
61337;BME280;47212;41.326;2.104;2023-10-13T20:57:11;101615.56;;;23.35;83.72
61337;BME280;47212;41.326;2.104;2023-10-13T21:02:14;101623.22;;;23.38;83.63
61337;BME280;47212;41.326;2.104;2023-10-13T21:07:21;101612.13;;;23.38;83.66
61337;BME280;47212;41.326;2.104;2023-10-13T21:12:23;101617.69;;;23.38;83.14
61337;BME280;47212;41.326;2.104;2023-10-13T21:17:25;101619.97;;;23.36;82.96
61337;BME280;47212;41.326;2.104;2023-10-13T21:22:27;101614.25;;;23.33;82.42
61337;BME280;47212;41.326;2.104;2023-10-13T21:27:29;101618.97;;;23.32;82.29
61337;BME280;47212;41.326;2.104;2023-10-13T21:32:33;101618.50;;;23.30;82.02
61337;BME280;47212;41.326;2.104;2023-10-13T21:37:35;101612.44;;;23.28;81.92
61337;BME280;47212;41.326;2.104;2023-10-13T21:42:37;101614.72;;;23.26;81.57
61337;BME280;47212;41.326;2.104;2023-10-13T21:47:40;101617.34;;;23.23;80.99
61337;BME280;47212;41.326;2.104;2023-10-13T21:52:44;101616.38;;;23.18;80.91
61337;BME280;47212;41.326;2.104;2023-10-13T21:57:50;101619.78;;;23.15;81.22
61337;BME280;47212;41.326;2.104;2023-10-13T22:02:55;101616.38;;;23.10;81.04
61337;BME280;47212;41.326;2.104;2023-10-13T22:07:58;101620.63;;;23.07;80.64
61337;BME280;47212;41.326;2.104;2023-10-13T22:13:01;101618.16;;;23.06;80.59
61337;BME280;47212;41.326;2.104;2023-10-13T22:18:05;101606.56;;;23.04;80.53
61337;BME280;47212;41.326;2.104;2023-10-13T22:23:08;101603.28;;;23.02;80.28
61337;BME280;47212;41.326;2.104;2023-10-13T22:28:13;101603.28;;;23.02;80.50
61337;BME280;47212;41.326;2.104;2023-10-13T22:33:15;101603.13;;;22.98;80.11
61337;BME280;47212;41.326;2.104;2023-10-13T22:38:17;101608.69;;;22.98;80.10
61337;BME280;47212;41.326;2.104;2023-10-13T22:43:19;101612.28;;;22.99;79.96
61337;BME280;47212;41.326;2.104;2023-10-13T22:48:21;101610.16;;;22.96;79.73
61337;BME280;47212;41.326;2.104;2023-10-13T22:53:25;101615.38;;;22.88;80.02
61337;BME280;47212;41.326;2.104;2023-10-13T22:58:28;101611.59;;;22.84;79.76
61337;BME280;47212;41.326;2.104;2023-10-13T23:03:30;101596.75;;;22.80;79.79
61337;BME280;47212;41.326;2.104;2023-10-13T23:08:43;101603.56;;;22.74;79.73
61337;BME280;47212;41.326;2.104;2023-10-13T23:13:48;101602.56;;;22.70;80.10
61337;BME280;47212;41.326;2.104;2023-10-13T23:18:57;101598.31;;;22.64;79.95
61337;BME280;47212;41.326;2.104;2023-10-13T23:24:03;101594.88;;;22.59;80.32
61337;BME280;47212;41.326;2.104;2023-10-13T23:29:06;101602.81;;;22.51;80.11
61337;BME280;47212;41.326;2.104;2023-10-13T23:34:12;101595.78;;;22.45;80.21
61337;BME280;47212;41.326;2.104;2023-10-13T23:39:14;101594.63;;;22.38;80.54
61337;BME280;47212;41.326;2.104;2023-10-13T23:44:29;101593.63;;;22.34;80.78
61337;BME280;47212;41.326;2.104;2023-10-13T23:49:34;101604.03;;;22.28;81.22
61337;BME280;47212;41.326;2.104;2023-10-13T23:54:36;101586.09;;;22.25;81.66
61337;BME280;47212;41.326;2.104;2023-10-13T23:59:41;101582.00;;;22.23;81.97
